createdAt,value
2022-10-22T00:00:43.313Z,29.50
2022-10-22T00:04:46.058Z,30.47
2022-10-22T00:08:47.992Z,30.60
2022-10-22T00:12:49.879Z,36.67
2022-10-22T00:16:51.778Z,38.00
2022-10-22T00:20:53.632Z,34.37
2022-10-22T00:24:55.491Z,30.80
2022-10-22T00:28:57.351Z,35.07
2022-10-22T00:32:59.134Z,32.67
2022-10-22T00:37:01.018Z,38.27
2022-10-22T00:41:02.849Z,34.40
2022-10-22T00:45:10.697Z,34.87
2022-10-22T00:49:12.509Z,33.13
2022-10-22T00:53:17.728Z,35.93
2022-10-22T00:57:20.170Z,36.60
2022-10-22T01:01:25.535Z,37.43
2022-10-22T01:05:33.737Z,32.40
2022-10-22T01:09:42.536Z,37.27
2022-10-22T01:13:58.616Z,35.17
2022-10-22T01:18:13.228Z,37.53
2022-10-22T01:22:23.819Z,38.17
2022-10-22T01:26:42.421Z,33.23
2022-10-22T01:30:44.299Z,31.37
2022-10-22T01:34:50.789Z,34.73
2022-10-22T01:38:52.687Z,34.70
2022-10-22T01:43:02.965Z,34.93
2022-10-22T01:47:39.167Z,32.57
2022-10-22T01:51:59.622Z,32.93
2022-10-22T01:56:28.996Z,33.43
2022-10-22T02:00:37.230Z,34.07
2022-10-22T02:05:14.132Z,35.73
2022-10-22T02:09:23.105Z,35.73
2022-10-22T02:13:52.005Z,39.60
2022-10-22T02:18:00.147Z,32.17
2022-10-22T02:22:02.157Z,38.40
2022-10-22T02:26:35.531Z,38.47
2022-10-22T02:30:37.460Z,36.90
2022-10-22T02:34:39.391Z,37.13
2022-10-22T02:38:41.479Z,36.10
2022-10-22T02:42:43.318Z,34.13
2022-10-22T02:46:45.208Z,37.83
2022-10-22T02:50:47.202Z,37.13
2022-10-22T02:54:49.031Z,34.37
2022-10-22T02:58:50.883Z,35.77
2022-10-22T03:02:52.680Z,35.97
2022-10-22T03:06:54.604Z,37.10
2022-10-22T03:10:56.813Z,36.40
2022-10-22T03:14:58.790Z,35.30
2022-10-22T03:19:02.026Z,37.13
2022-10-22T03:23:03.980Z,34.03
2022-10-22T03:27:05.865Z,37.93
2022-10-22T03:31:07.872Z,37.53
2022-10-22T03:35:09.784Z,36.93
2022-10-22T03:39:13.320Z,33.20
2022-10-22T03:43:15.366Z,34.37
2022-10-22T03:47:17.348Z,35.67
2022-10-22T03:51:19.259Z,39.67
2022-10-22T03:55:21.226Z,34.07
2022-10-22T03:59:23.204Z,31.83
2022-10-22T04:03:25.152Z,34.90
2022-10-22T04:07:27.154Z,33.60
2022-10-22T04:11:29.095Z,33.87
2022-10-22T04:15:32.740Z,35.40
2022-10-22T04:19:34.650Z,35.33
2022-10-22T04:23:36.660Z,36.73
2022-10-22T04:27:38.697Z,35.47
2022-10-22T04:31:40.845Z,34.10
2022-10-22T04:35:42.713Z,40.47
2022-10-22T04:39:44.561Z,38.83
2022-10-22T04:43:46.817Z,35.03
2022-10-22T04:47:48.815Z,40.40
2022-10-22T04:51:50.715Z,38.77
2022-10-22T04:55:58.136Z,33.60
2022-10-22T05:00:02.732Z,36.10
2022-10-22T05:04:05.730Z,34.50
2022-10-22T05:08:07.615Z,40.03
2022-10-22T05:12:11.991Z,35.50
2022-10-22T05:16:21.656Z,34.90
2022-10-22T05:20:23.619Z,33.87
2022-10-22T05:24:26.203Z,36.33
2022-10-22T05:28:28.167Z,33.67
2022-10-22T05:32:30.052Z,33.70
2022-10-22T05:36:36.841Z,33.50
2022-10-22T05:40:42.926Z,32.10
2022-10-22T05:44:45.111Z,33.67
2022-10-22T05:48:59.257Z,36.33
2022-10-22T05:53:10.558Z,33.17
2022-10-22T05:57:12.953Z,33.40
2022-10-22T06:01:40.174Z,35.77
2022-10-22T06:05:42.255Z,34.50
2022-10-22T06:09:44.215Z,31.83
2022-10-22T06:13:46.626Z,35.77
2022-10-22T06:17:58.572Z,33.20
2022-10-22T06:22:06.206Z,30.10
2022-10-22T06:26:11.515Z,32.00
2022-10-22T06:30:13.664Z,30.20
2022-10-22T06:34:15.972Z,31.40
2022-10-22T06:38:28.482Z,30.37
2022-10-22T06:42:36.388Z,35.67
2022-10-22T06:46:42.569Z,29.87
2022-10-22T06:50:45.765Z,28.00
2022-10-22T06:55:25.169Z,30.40
2022-10-22T06:59:59.348Z,31.27
2022-10-22T07:04:04.701Z,30.70
2022-10-22T07:08:07.183Z,32.47
2022-10-22T07:16:32.960Z,27.50
2022-10-22T07:20:34.900Z,32.00
2022-10-22T07:24:36.832Z,26.00
2022-10-22T07:28:39.944Z,30.77
2022-10-22T07:33:53.294Z,27.60
2022-10-22T07:37:58.816Z,29.20
2022-10-22T07:42:00.882Z,29.80
2022-10-22T07:46:29.906Z,33.87
2022-10-22T07:50:31.781Z,30.27
2022-10-22T07:54:36.363Z,35.53
2022-10-22T07:58:41.755Z,34.77
2022-10-22T08:03:06.594Z,33.33
2022-10-22T08:12:53.019Z,14.27
2022-10-22T08:17:11.871Z,8.07
2022-10-22T08:21:33.124Z,4.10
2022-10-22T08:25:53.288Z,2.60
2022-10-22T08:29:55.660Z,2.53
2022-10-22T08:34:01.243Z,3.63
2022-10-22T08:38:03.564Z,3.43
2022-10-22T08:42:36.543Z,2.67
2022-10-22T08:47:12.700Z,12.47
2022-10-22T08:51:20.883Z,15.37
2022-10-22T08:55:22.960Z,16.50
2022-10-22T09:00:09.314Z,21.00
2022-10-22T09:04:41.612Z,24.70
2022-10-22T09:08:48.045Z,27.23
2022-10-22T09:12:57.217Z,27.87
2022-10-22T09:17:43.251Z,25.97
2022-10-22T09:26:59.031Z,24.03
2022-10-22T09:31:01.112Z,21.30
2022-10-22T09:35:03.064Z,22.10
2022-10-22T09:39:06.017Z,20.27
2022-10-22T09:43:12.570Z,21.43
2022-10-22T09:47:43.133Z,20.83
2022-10-22T09:52:00.443Z,19.77
2022-10-22T09:56:09.800Z,20.77
2022-10-22T10:00:37.924Z,22.03
2022-10-22T10:05:11.383Z,16.30
2022-10-22T10:09:32.605Z,17.07
2022-10-22T10:14:27.986Z,15.73
2022-10-22T10:19:10.747Z,15.03
2022-10-22T10:24:13.438Z,13.87
2022-10-22T10:29:07.090Z,15.40
2022-10-22T10:33:20.845Z,14.87
2022-10-22T10:37:29.620Z,12.20
2022-10-22T10:41:59.597Z,11.20
2022-10-22T10:46:32.188Z,12.27
2022-10-22T10:51:09.240Z,13.27
2022-10-22T10:55:53.769Z,10.57
2022-10-22T11:00:11.911Z,9.47
2022-10-22T11:04:37.689Z,2.67
2022-10-22T11:08:54.772Z,1.10
2022-10-22T11:13:13.035Z,1.00
2022-10-22T11:17:28.468Z,2.27
2022-10-22T11:22:05.049Z,1.53
2022-10-22T11:26:11.533Z,0.93
2022-10-22T11:30:19.849Z,1.37
2022-10-22T11:34:34.917Z,1.87
2022-10-22T11:38:38.306Z,1.40
2022-10-22T11:42:45.195Z,3.17
2022-10-22T11:46:59.171Z,2.23
2022-10-22T11:51:01.929Z,2.43
2022-10-22T11:55:28.130Z,2.60
2022-10-22T11:59:41.648Z,1.27
2022-10-22T12:03:54.227Z,2.40
2022-10-22T12:08:23.690Z,2.97
2022-10-22T12:12:25.782Z,2.33
2022-10-22T12:16:57.603Z,2.60
2022-10-22T12:21:51.380Z,1.33
2022-10-22T12:27:39.884Z,1.87
2022-10-22T12:31:18.016Z,2.20
2022-10-22T12:35:22.752Z,1.87
2022-10-22T12:39:31.393Z,2.00
2022-10-22T12:43:33.706Z,1.67
2022-10-22T12:57:34.629Z,1.57
2022-10-22T13:02:01.060Z,1.83
2022-10-22T13:06:24.700Z,1.43
2022-10-22T13:10:33.933Z,1.60
2022-10-22T13:14:51.579Z,1.93
2022-10-22T13:25:19.621Z,0.87
2022-10-22T13:34:55.120Z,1.23
2022-10-22T13:39:23.783Z,3.03
2022-10-22T13:43:25.951Z,0.80
2022-10-22T13:47:29.498Z,1.50
2022-10-22T13:51:35.093Z,2.40
2022-10-22T13:55:37.000Z,1.97
2022-10-22T13:59:38.912Z,1.30
2022-10-22T14:03:40.838Z,1.20
2022-10-22T14:07:43.098Z,0.60
2022-10-22T14:11:45.149Z,2.10
2022-10-22T14:15:49.160Z,1.10
2022-10-22T14:19:51.238Z,1.03
2022-10-22T14:23:54.657Z,1.40
2022-10-22T14:27:56.673Z,1.00
2022-10-22T14:31:58.596Z,0.83
2022-10-22T14:36:00.995Z,2.20
2022-10-22T14:40:03.146Z,2.23
2022-10-22T14:44:05.317Z,2.30
2022-10-22T14:48:12.597Z,0.90
2022-10-22T14:52:15.061Z,1.10
2022-10-22T14:56:18.904Z,0.90
2022-10-22T15:00:21.215Z,1.50
2022-10-22T15:04:25.930Z,1.97
2022-10-22T15:08:28.025Z,0.80
2022-10-22T15:12:45.353Z,1.40
2022-10-22T15:16:47.362Z,1.20
2022-10-22T15:21:00.826Z,0.70
2022-10-22T15:25:20.414Z,1.90
2022-10-22T15:29:22.542Z,0.90
2022-10-22T15:33:33.105Z,1.10
2022-10-22T15:38:34.228Z,2.30
2022-10-22T15:49:25.806Z,1.33
2022-10-22T15:53:24.059Z,1.97
2022-10-22T15:57:28.844Z,10.63
2022-10-22T16:01:35.897Z,4.73
2022-10-22T16:17:16.849Z,5.73
2022-10-22T16:21:22.172Z,4.27
2022-10-22T16:25:25.654Z,3.60
2022-10-22T16:29:27.763Z,3.07
2022-10-22T16:33:39.125Z,3.97
2022-10-22T16:37:48.495Z,4.10
2022-10-22T16:41:50.748Z,4.50
2022-10-22T17:16:21.577Z,10.23
2022-10-22T17:20:29.390Z,10.80
2022-10-22T17:29:42.846Z,8.53
2022-10-22T17:44:12.420Z,6.00
2022-10-22T17:48:24.411Z,7.30
2022-10-22T17:52:28.987Z,6.60
2022-10-22T17:56:56.794Z,6.80
2022-10-22T18:29:53.272Z,6.33
2022-10-22T18:45:21.017Z,6.10
2022-10-22T18:49:38.739Z,7.40
2022-10-22T18:54:21.653Z,7.20
2022-10-22T19:18:18.812Z,5.80
2022-10-22T19:23:02.689Z,6.53
2022-10-22T19:27:17.080Z,6.80
2022-10-22T19:31:22.583Z,6.40
2022-10-22T19:35:31.634Z,5.33
2022-10-22T19:39:38.266Z,6.30
2022-10-22T19:43:48.197Z,5.10
2022-10-22T19:48:11.869Z,6.47
2022-10-22T19:52:26.113Z,6.60
2022-10-22T19:56:28.708Z,5.13
2022-10-22T20:00:36.414Z,4.53
2022-10-22T20:09:01.556Z,7.67
2022-10-22T20:13:06.304Z,4.07
2022-10-22T20:17:08.366Z,5.00
2022-10-22T20:21:13.829Z,5.07
2022-10-22T20:25:17.558Z,3.90
2022-10-22T20:29:28.989Z,6.50
2022-10-22T20:33:31.005Z,4.53
2022-10-22T20:37:34.017Z,5.47
2022-10-22T20:41:37.935Z,4.97
2022-10-22T20:45:43.721Z,5.07
2022-10-22T20:49:45.759Z,5.07
2022-10-22T20:53:48.083Z,4.67
2022-10-22T20:57:50.050Z,4.20
2022-10-22T21:01:53.875Z,4.63
2022-10-22T21:05:58.332Z,4.83
2022-10-22T21:10:00.386Z,3.63
2022-10-22T21:14:02.729Z,4.90
2022-10-22T21:18:04.783Z,5.03
2022-10-22T21:22:07.347Z,2.77
2022-10-22T21:26:09.655Z,3.80
2022-10-22T21:30:13.310Z,8.40
2022-10-22T21:34:17.290Z,10.13
2022-10-22T21:38:19.634Z,13.17
2022-10-22T21:42:30.508Z,15.90
2022-10-22T21:46:32.939Z,15.97
2022-10-22T21:50:43.110Z,15.53
2022-10-22T21:54:45.290Z,18.57
2022-10-22T21:58:47.602Z,24.13
2022-10-22T22:02:52.098Z,16.20
2022-10-22T22:06:54.105Z,16.00
2022-10-22T22:11:04.660Z,15.70
2022-10-22T22:15:08.005Z,15.20
2022-10-22T22:19:12.685Z,19.60
2022-10-22T22:23:16.294Z,15.83
2022-10-22T22:31:35.785Z,15.77
2022-10-22T22:39:39.856Z,16.20
2022-10-22T22:43:41.949Z,13.10
2022-10-22T22:47:44.115Z,14.23
2022-10-22T22:51:46.292Z,16.33
2022-10-22T22:55:49.275Z,13.87
2022-10-22T23:18:32.863Z,12.03
2022-10-22T23:22:34.751Z,15.03
2022-10-22T23:26:39.568Z,18.73
2022-10-22T23:30:44.454Z,16.87
2022-10-22T23:34:46.284Z,15.73
2022-10-22T23:38:50.784Z,15.40
2022-10-22T23:42:52.830Z,14.00
2022-10-22T23:46:55.269Z,13.83
2022-10-22T23:50:57.160Z,14.83
2022-10-22T23:54:59.132Z,14.27
2022-10-22T23:59:01.164Z,14.63
